Aroda, Virginia
Current Conditions -  °F | °C
As of 11:15 AM on Monday 24 Nov 2014 (Local Time) from KOMH Reporting Station
Broken Clouds Broken Clouds  
Wind Chill: 68°   Ceiling: 3100
Heat Index: 68°   Visibility: 10mi
Dew Point: 55°   Wind: 20mph
Humidity: 64%   Direction: 190°S
Pressure: 29.71"   Gusts: 28mph
Location:  38.33°N, 78.24°W
Report Text: KOMH 241615Z AUTO 19017G24KT 10SM BKN031 20/13 A2971 RMK AO2
Loading
Personal Weather Stations






























Interactive Weather Map New forecast layout! Learn more

10-Day Weather Forecast

Advertisements
Track Severe Weather on mobile